Time;durP1;ratioP1;P1;durP2;ratioP2;P2;SDS_P1;SDS_P2;PMS_P1;PMS_P2;Temp;Humidity;BMP_temperature;BMP_pressure;BME280_temperature;BME280_humidity;BME280_pressure;Samples;Min_cycle;Max_cycle;Signal;HPM_P1;HPM_P2
2021/01/21 00:01:36;;;;;;;11.90;4.70;;;;;;;;;;5012787;28;20441;-71
2021/01/21 00:04:02;;;;;;;6.27;4.50;;;;;;;;;;5015110;28;20402;-71
2021/01/21 00:06:28;;;;;;;11.33;5.30;;;;;;;;;;5012643;28;20953;-71
2021/01/21 00:08:54;;;;;;;12.10;5.80;;;;;;;;;;5014267;28;20437;-71
2021/01/21 00:11:20;;;;;;;6.93;3.73;;;;;;;;;;5012866;28;20409;-71
2021/01/21 00:13:46;;;;;;;9.80;5.30;;;;;;;;;;5013880;28;20452;-71
2021/01/21 00:16:12;;;;;;;8.03;4.57;;;;;;;;;;5012788;28;20768;-71
2021/01/21 00:18:38;;;;;;;7.17;5.17;;;;;;;;;;5012550;28;20513;-71
2021/01/21 00:21:04;;;;;;;5.27;4.30;;;;;;;;;;5013853;28;20442;-72
2021/01/21 00:23:33;;;;;;;10.70;5.07;;;;;;;;;;5011767;28;20561;-71
2021/01/21 00:25:59;;;;;;;6.93;3.87;;;;;;;;;;5014053;28;20408;-72
2021/01/21 00:28:25;;;;;;;7.70;3.60;;;;;;;;;;5012362;28;20950;-71
2021/01/21 00:30:52;;;;;;;6.17;3.60;;;;;;;;;;5013551;28;20442;-72
2021/01/21 00:33:18;;;;;;;5.47;3.40;;;;;;;;;;5012718;28;20442;-72
2021/01/21 00:35:44;;;;;;;7.00;4.77;;;;;;;;;;5013754;28;20418;-72
2021/01/21 00:38:11;;;;;;;5.40;3.13;;;;;;;;;;5012261;28;20437;-72
2021/01/21 00:40:37;;;;;;;10.13;3.93;;;;;;;;;;5013449;28;20439;-72
2021/01/21 00:43:03;;;;;;;6.83;4.07;;;;;;;;;;5012210;28;20443;-71
2021/01/21 00:45:29;;;;;;;6.10;3.03;;;;;;;;;;5013450;28;20458;-72
2021/01/21 00:47:55;;;;;;;5.37;3.30;;;;;;;;;;5012966;28;20462;-72
2021/01/21 00:50:21;;;;;;;4.03;3.40;;;;;;;;;;5013898;28;20438;-72
2021/01/21 00:52:47;;;;;;;7.53;4.10;;;;;;;;;;5011326;28;20438;-72
2021/01/21 00:55:13;;;;;;;8.90;4.40;;;;;;;;;;5012193;28;20453;-72
2021/01/21 00:57:39;;;;;;;5.03;3.10;;;;;;;;;;5011841;28;20831;-71
2021/01/21 01:00:10;;;;;;;5.50;2.73;;;;;;;;;;5012885;28;20446;-71
2021/01/21 01:02:36;;;;;;;7.53;2.87;;;;;;;;;;5012380;28;20441;-71
2021/01/21 01:05:02;;;;;;;5.70;3.50;;;;;;;;;;5013090;28;20491;-72
2021/01/21 01:07:28;;;;;;;4.53;2.83;;;;;;;;;;5012070;28;20454;-71
2021/01/21 01:09:54;;;;;;;4.93;3.07;;;;;;;;;;5013535;28;20435;-71
2021/01/21 01:12:20;;;;;;;3.93;3.13;;;;;;;;;;5012132;28;20787;-71
2021/01/21 01:14:46;;;;;;;7.30;3.03;;;;;;;;;;5012844;28;20425;-71
2021/01/21 01:17:12;;;;;;;3.50;2.33;;;;;;;;;;5012117;28;20437;-71
2021/01/21 01:19:38;;;;;;;5.90;3.10;;;;;;;;;;5013009;28;20916;-71
2021/01/21 01:22:04;;;;;;;5.00;2.53;;;;;;;;;;5011031;28;20432;-71
2021/01/21 01:24:30;;;;;;;6.80;3.00;;;;;;;;;;5012904;28;20414;-71
2021/01/21 01:26:56;;;;;;;4.10;2.60;;;;;;;;;;5011941;28;21522;-71
2021/01/21 01:29:22;;;;;;;5.90;3.47;;;;;;;;;;5013044;28;20518;-71
2021/01/21 01:31:48;;;;;;;7.70;3.60;;;;;;;;;;5010065;28;20848;-71
2021/01/21 01:34:14;;;;;;;5.90;2.67;;;;;;;;;;5011590;28;20437;-71
2021/01/21 01:36:40;;;;;;;8.23;2.73;;;;;;;;;;5011631;28;20469;-70
2021/01/21 01:39:06;;;;;;;3.30;2.23;;;;;;;;;;5012769;28;20446;-72
2021/01/21 01:41:32;;;;;;;5.17;3.20;;;;;;;;;;5011587;28;20990;-71
2021/01/21 01:43:58;;;;;;;6.07;2.63;;;;;;;;;;5012036;28;20426;-71
2021/01/21 01:46:27;;;;;;;6.50;2.93;;;;;;;;;;5012389;28;20954;-71
2021/01/21 01:49:00;;;;;;;4.33;2.47;;;;;;;;;;5011767;28;20497;-71
2021/01/21 01:51:26;;;;;;;4.43;2.90;;;;;;;;;;5012727;28;20410;-71
2021/01/21 01:53:52;;;;;;;5.43;3.17;;;;;;;;;;5011651;28;20517;-71
2021/01/21 01:56:19;;;;;;;4.73;2.90;;;;;;;;;;5011447;28;20435;-71
2021/01/21 01:58:45;;;;;;;6.37;2.80;;;;;;;;;;5011355;28;20462;-71
2021/01/21 02:01:11;;;;;;;3.93;2.63;;;;;;;;;;5012689;28;20434;-72
2021/01/21 02:03:38;;;;;;;3.90;2.63;;;;;;;;;;5013882;28;20438;-71
2021/01/21 02:06:04;;;;;;;3.23;2.10;;;;;;;;;;5013921;28;20783;-71
2021/01/21 02:08:30;;;;;;;9.83;2.70;;;;;;;;;;5015134;28;20462;-71
2021/01/21 02:11:00;;;;;;;6.73;2.13;;;;;;;;;;5015827;28;20425;-71
2021/01/21 02:13:26;;;;;;;4.33;2.37;;;;;;;;;;5014749;28;20933;-71
2021/01/21 02:15:55;;;;;;;3.40;2.03;;;;;;;;;;5016386;28;20430;-71
2021/01/21 02:18:24;;;;;;;6.10;2.73;;;;;;;;;;5015054;28;20442;-71
2021/01/21 02:21:02;;;;;;;4.60;2.07;;;;;;;;;;5016212;28;20763;-72
2021/01/21 02:23:47;;;;;;;4.87;3.00;;;;;;;;;;5014953;28;20791;-71
2021/01/21 02:26:32;;;;;;;3.97;2.17;;;;;;;;;;5015719;28;20419;-71
2021/01/21 02:29:09;;;;;;;3.50;1.87;;;;;;;;;;5013750;28;20816;-72
2021/01/21 02:31:41;;;;;;;4.23;2.10;;;;;;;;;;5014516;28;20469;-72
2021/01/21 02:34:10;;;;;;;3.20;2.00;;;;;;;;;;5014626;28;20423;-71
2021/01/21 02:36:37;;;;;;;3.77;1.97;;;;;;;;;;5015538;28;20505;-71
2021/01/21 02:39:04;;;;;;;3.43;2.30;;;;;;;;;;5014420;28;20463;-71
2021/01/21 02:41:32;;;;;;;4.20;1.90;;;;;;;;;;5014395;28;20502;-71
2021/01/21 02:43:58;;;;;;;7.83;2.43;;;;;;;;;;5014254;28;20432;-71
2021/01/21 02:46:24;;;;;;;2.70;2.33;;;;;;;;;;5015404;28;20463;-71
2021/01/21 02:48:51;;;;;;;3.43;1.63;;;;;;;;;;5013838;28;20809;-71
2021/01/21 02:51:26;;;;;;;3.37;2.17;;;;;;;;;;5015372;28;20532;-72
2021/01/21 02:54:07;;;;;;;2.83;1.80;;;;;;;;;;5013229;28;21004;-70
2021/01/21 02:56:35;;;;;;;2.90;2.10;;;;;;;;;;5014713;28;20578;-71
2021/01/21 02:59:02;;;;;;;4.23;2.03;;;;;;;;;;5014134;28;20531;-72
2021/01/21 03:01:31;;;;;;;4.70;2.50;;;;;;;;;;5015247;28;20876;-72
2021/01/21 03:03:57;;;;;;;3.67;2.13;;;;;;;;;;5013525;28;20435;-71
2021/01/21 03:06:24;;;;;;;5.47;2.53;;;;;;;;;;5015033;28;20447;-71
2021/01/21 03:08:50;;;;;;;5.73;3.20;;;;;;;;;;5012593;28;20455;-71
2021/01/21 03:11:16;;;;;;;6.40;3.30;;;;;;;;;;5015144;28;20442;-72
2021/01/21 03:13:43;;;;;;;3.50;2.83;;;;;;;;;;5013926;28;20469;-71
2021/01/21 03:16:09;;;;;;;4.00;2.60;;;;;;;;;;5013956;28;20426;-72
2021/01/21 03:18:36;;;;;;;5.23;2.70;;;;;;;;;;5014423;28;20513;-72
2021/01/21 03:21:02;;;;;;;12.13;3.17;;;;;;;;;;5016340;28;20423;-72
2021/01/21 03:23:28;;;;;;;4.20;2.80;;;;;;;;;;5016595;28;20799;-72
2021/01/21 03:25:54;;;;;;;4.40;2.70;;;;;;;;;;5016803;28;20430;-72
2021/01/21 03:28:20;;;;;;;2.83;1.80;;;;;;;;;;5014719;28;20456;-72
2021/01/21 03:30:46;;;;;;;9.13;2.60;;;;;;;;;;5017093;28;20430;-72
2021/01/21 03:33:12;;;;;;;2.80;2.13;;;;;;;;;;5014941;28;20508;-71
2021/01/21 03:35:38;;;;;;;2.70;2.23;;;;;;;;;;5015254;28;20975;-71
2021/01/21 03:38:04;;;;;;;3.00;2.27;;;;;;;;;;5011549;28;20475;-71
2021/01/21 03:40:30;;;;;;;5.50;2.70;;;;;;;;;;4994893;28;20447;-72
2021/01/21 03:42:56;;;;;;;4.40;2.20;;;;;;;;;;4995539;28;20466;-71
2021/01/21 03:45:22;;;;;;;5.50;3.10;;;;;;;;;;5014721;28;20412;-72
2021/01/21 03:47:48;;;;;;;3.60;2.47;;;;;;;;;;5013121;28;20446;-71
2021/01/21 03:50:14;;;;;;;4.03;2.50;;;;;;;;;;5012674;28;20446;-71
2021/01/21 03:52:40;;;;;;;4.93;2.30;;;;;;;;;;5014289;28;20477;-72
2021/01/21 03:55:06;;;;;;;5.33;2.40;;;;;;;;;;5013218;28;20488;-71
2021/01/21 03:57:32;;;;;;;5.83;2.47;;;;;;;;;;5012543;28;20516;-72
2021/01/21 03:59:58;;;;;;;4.10;2.47;;;;;;;;;;5012030;28;20566;-71
2021/01/21 04:02:24;;;;;;;4.53;2.67;;;;;;;;;;5013679;28;20795;-72
2021/01/21 04:04:50;;;;;;;4.17;2.60;;;;;;;;;;5013278;28;20441;-71
2021/01/21 04:07:16;;;;;;;8.20;2.57;;;;;;;;;;5011649;28;20860;-71
2021/01/21 04:09:42;;;;;;;4.13;2.70;;;;;;;;;;5013026;28;20488;-71
2021/01/21 04:12:08;;;;;;;3.27;2.20;;;;;;;;;;5013568;28;20419;-71
2021/01/21 04:14:34;;;;;;;3.80;2.50;;;;;;;;;;5012839;28;20441;-72
2021/01/21 04:17:00;;;;;;;4.10;2.60;;;;;;;;;;5014159;28;20449;-71
2021/01/21 04:19:26;;;;;;;3.10;2.30;;;;;;;;;;5012787;28;20458;-71
2021/01/21 04:21:52;;;;;;;3.80;2.77;;;;;;;;;;5013523;28;20800;-71
2021/01/21 04:24:19;;;;;;;7.23;2.40;;;;;;;;;;5012767;28;20423;-71
2021/01/21 04:26:45;;;;;;;6.30;2.67;;;;;;;;;;5013614;28;20546;-71
2021/01/21 04:29:11;;;;;;;4.57;2.90;;;;;;;;;;5012649;28;20804;-71
2021/01/21 04:31:37;;;;;;;4.30;3.30;;;;;;;;;;5013487;28;20405;-71
2021/01/21 04:34:03;;;;;;;5.23;3.23;;;;;;;;;;5012535;28;20454;-72
2021/01/21 04:36:29;;;;;;;4.00;2.90;;;;;;;;;;5013663;28;20453;-72
2021/01/21 04:38:55;;;;;;;7.80;3.47;;;;;;;;;;5026504;23;20475;-83
2021/01/21 04:41:21;;;;;;;5.57;3.50;;;;;;;;;;5073985;28;20492;-84
2021/01/21 04:43:47;;;;;;;5.13;3.03;;;;;;;;;;5071585;28;20439;-84
2021/01/21 04:46:13;;;;;;;3.90;3.03;;;;;;;;;;5073833;28;20395;-84
2021/01/21 04:48:42;;;;;;;3.60;2.60;;;;;;;;;;5069290;28;20475;-84
2021/01/21 04:51:09;;;;;;;5.40;3.43;;;;;;;;;;5053338;28;20413;-84
2021/01/21 04:53:38;;;;;;;7.10;3.03;;;;;;;;;;5053421;28;20929;-84
2021/01/21 04:56:05;;;;;;;5.47;3.17;;;;;;;;;;5053122;28;20417;-84
2021/01/21 04:58:32;;;;;;;4.03;2.10;;;;;;;;;;5035718;28;20468;-84
2021/01/21 05:00:59;;;;;;;5.87;2.90;;;;;;;;;;5067779;28;20432;-84
2021/01/21 05:03:26;;;;;;;4.47;2.67;;;;;;;;;;5053665;28;20443;-84
2021/01/21 05:05:53;;;;;;;7.67;2.80;;;;;;;;;;5056008;28;20421;-84
2021/01/21 05:08:19;;;;;;;4.67;2.77;;;;;;;;;;5053382;28;20555;-84
2021/01/21 05:10:46;;;;;;;3.13;2.20;;;;;;;;;;5054092;28;20421;-84
2021/01/21 05:13:12;;;;;;;3.40;2.30;;;;;;;;;;5069132;28;20431;-84
2021/01/21 05:15:38;;;;;;;7.07;3.30;;;;;;;;;;5053323;28;20427;-84
2021/01/21 05:18:04;;;;;;;5.70;2.77;;;;;;;;;;5053468;28;20460;-84
2021/01/21 05:20:33;;;;;;;3.93;2.50;;;;;;;;;;5052974;28;20422;-84
2021/01/21 05:23:00;;;;;;;4.93;2.90;;;;;;;;;;5051787;28;20433;-84
2021/01/21 05:25:27;;;;;;;2.90;2.23;;;;;;;;;;5053063;28;20944;-84
2021/01/21 05:27:54;;;;;;;4.60;2.67;;;;;;;;;;5051834;28;20472;-84
2021/01/21 05:30:20;;;;;;;10.70;3.00;;;;;;;;;;5052690;28;20424;-84
2021/01/21 05:32:46;;;;;;;6.73;3.13;;;;;;;;;;5064499;28;20408;-83
2021/01/21 05:35:14;;;;;;;4.83;2.90;;;;;;;;;;5061265;28;20420;-84
2021/01/21 05:37:40;;;;;;;3.60;2.70;;;;;;;;;;5052888;28;20460;-84
2021/01/21 05:40:07;;;;;;;6.70;3.93;;;;;;;;;;5056735;28;20482;-84
2021/01/21 05:42:38;;;;;;;6.33;3.13;;;;;;;;;;5055768;28;20476;-84
2021/01/21 05:45:07;;;;;;;8.23;4.17;;;;;;;;;;5056005;28;20422;-84
2021/01/21 05:47:33;;;;;;;6.37;3.47;;;;;;;;;;5055479;28;20500;-84
2021/01/21 05:50:01;;;;;;;5.57;3.27;;;;;;;;;;5056781;28;20957;-84
2021/01/21 05:52:27;;;;;;;8.13;3.57;;;;;;;;;;5057864;28;20435;-84
2021/01/21 05:54:53;;;;;;;8.07;3.50;;;;;;;;;;5061232;28;20441;-84
2021/01/21 05:57:19;;;;;;;4.53;3.30;;;;;;;;;;5059390;28;20987;-84
2021/01/21 05:59:47;;;;;;;7.97;3.83;;;;;;;;;;5064137;28;20444;-84
2021/01/21 06:02:13;;;;;;;5.93;3.10;;;;;;;;;;5079990;28;20453;-84
2021/01/21 06:04:41;;;;;;;6.07;3.40;;;;;;;;;;5081021;28;20425;-84
2021/01/21 06:07:10;;;;;;;14.77;5.37;;;;;;;;;;5084173;28;20474;-84
2021/01/21 06:09:37;;;;;;;5.20;3.77;;;;;;;;;;5082461;28;20449;-84
2021/01/21 06:12:04;;;;;;;8.70;4.37;;;;;;;;;;5058729;28;20791;-84
2021/01/21 06:14:30;;;;;;;9.80;3.90;;;;;;;;;;5059057;28;20417;-84
2021/01/21 06:16:57;;;;;;;6.23;3.50;;;;;;;;;;5055797;28;20848;-84
2021/01/21 06:19:23;;;;;;;6.63;3.57;;;;;;;;;;5057235;28;20433;-84
2021/01/21 06:22:01;;;;;;;9.00;3.40;;;;;;;;;;5043024;28;20436;-84
2021/01/21 06:24:30;;;;;;;8.47;3.67;;;;;;;;;;5058215;28;20412;-84
2021/01/21 06:26:58;;;;;;;5.57;3.03;;;;;;;;;;5060041;28;20885;-84
2021/01/21 06:29:26;;;;;;;4.20;3.17;;;;;;;;;;5079422;28;20781;-85
2021/01/21 06:31:53;;;;;;;3.80;2.63;;;;;;;;;;5059735;28;20437;-85
2021/01/21 06:34:22;;;;;;;5.30;3.10;;;;;;;;;;5057607;28;20924;-85
2021/01/21 06:36:53;;;;;;;6.70;3.50;;;;;;;;;;5057367;28;20474;-85
2021/01/21 06:39:22;;;;;;;7.50;4.27;;;;;;;;;;5057955;28;20481;-85
2021/01/21 06:41:50;;;;;;;10.60;4.30;;;;;;;;;;5057469;28;20431;-85
2021/01/21 06:44:16;;;;;;;7.00;5.30;;;;;;;;;;5059027;28;20413;-85
2021/01/21 06:46:44;;;;;;;6.30;3.90;;;;;;;;;;5057464;28;20784;-85
2021/01/21 06:49:11;;;;;;;4.73;3.17;;;;;;;;;;5057434;28;20444;-86
2021/01/21 06:51:38;;;;;;;5.80;3.60;;;;;;;;;;5059621;28;20937;-85
2021/01/21 06:54:04;;;;;;;9.67;4.70;;;;;;;;;;5077453;28;20418;-85
2021/01/21 06:56:31;;;;;;;5.07;3.07;;;;;;;;;;5077855;28;20931;-85
2021/01/21 06:58:57;;;;;;;5.97;2.77;;;;;;;;;;5057974;28;20453;-85
2021/01/21 07:01:26;;;;;;;4.03;2.57;;;;;;;;;;5040989;28;20417;-85
2021/01/21 07:03:52;;;;;;;4.03;2.30;;;;;;;;;;5057567;28;20432;-85
2021/01/21 07:06:18;;;;;;;2.97;2.10;;;;;;;;;;5057349;28;20433;-85
2021/01/21 07:09:07;;;;;;;3.00;1.70;;;;;;;;;;5056273;28;20476;-85
2021/01/21 07:11:36;;;;;;;3.10;1.63;;;;;;;;;;5055558;28;20420;-85
2021/01/21 07:14:05;;;;;;;2.33;1.50;;;;;;;;;;5057239;28;20571;-85
2021/01/21 07:16:32;;;;;;;3.13;1.83;;;;;;;;;;5058972;28;20418;-85
2021/01/21 07:19:00;;;;;;;3.20;2.00;;;;;;;;;;5055979;28;20534;-85
2021/01/21 07:21:30;;;;;;;2.40;1.80;;;;;;;;;;5057327;28;20417;-85
2021/01/21 07:23:58;;;;;;;2.63;1.67;;;;;;;;;;5056858;28;20427;-85
2021/01/21 07:26:28;;;;;;;3.07;2.20;;;;;;;;;;5059038;28;20889;-85
2021/01/21 07:29:03;;;;;;;2.67;1.27;;;;;;;;;;5053311;28;20469;-85
2021/01/21 07:31:49;;;;;;;2.67;1.50;;;;;;;;;;5050123;28;20513;-85
2021/01/21 07:34:22;;;;;;;3.00;1.60;;;;;;;;;;5060677;28;20442;-84
2021/01/21 07:37:07;;;;;;;3.10;1.20;;;;;;;;;;5059842;28;20413;-84
2021/01/21 07:39:51;;;;;;;2.27;1.40;;;;;;;;;;5042511;28;20920;-84
2021/01/21 07:42:18;;;;;;;1.90;1.20;;;;;;;;;;5042522;28;20531;-84
2021/01/21 07:45:00;;;;;;;3.03;1.40;;;;;;;;;;5079458;28;20412;-83
2021/01/21 07:47:31;;;;;;;2.07;1.37;;;;;;;;;;5069153;28;20547;-84
2021/01/21 07:50:16;;;;;;;2.60;1.87;;;;;;;;;;5054647;28;20422;-84
2021/01/21 07:52:42;;;;;;;6.70;1.70;;;;;;;;;;5056716;28;20924;-84
2021/01/21 07:55:08;;;;;;;3.53;1.50;;;;;;;;;;5056048;28;20436;-84
2021/01/21 07:57:35;;;;;;;3.03;1.93;;;;;;;;;;5038757;28;20446;-84
2021/01/21 08:00:03;;;;;;;2.10;1.43;;;;;;;;;;5055566;28;20998;-85
2021/01/21 08:02:41;;;;;;;4.20;1.60;;;;;;;;;;5050524;28;20983;-85
2021/01/21 08:05:08;;;;;;;3.80;1.80;;;;;;;;;;5054959;28;20413;-84
2021/01/21 08:07:44;;;;;;;8.27;2.80;;;;;;;;;;5035365;28;20467;-84
2021/01/21 08:10:10;;;;;;;8.00;2.43;;;;;;;;;;5055889;28;20511;-84
2021/01/21 08:12:39;;;;;;;4.03;1.40;;;;;;;;;;5053189;28;20437;-85
2021/01/21 08:15:06;;;;;;;9.80;1.57;;;;;;;;;;5037726;28;20420;-84
2021/01/21 08:17:32;;;;;;;2.63;1.30;;;;;;;;;;5035779;28;20452;-84
2021/01/21 08:19:58;;;;;;;3.30;2.00;;;;;;;;;;5040589;28;20442;-85
2021/01/21 08:22:24;;;;;;;3.27;1.10;;;;;;;;;;5037366;28;20445;-85
2021/01/21 08:25:00;;;;;;;3.43;1.70;;;;;;;;;;5048546;28;20434;-86
2021/01/21 08:27:46;;;;;;;5.30;2.53;;;;;;;;;;5049442;28;20580;-85
2021/01/21 08:30:15;;;;;;;13.77;1.60;;;;;;;;;;5052435;28;20419;-84
2021/01/21 08:32:44;;;;;;;5.60;1.93;;;;;;;;;;5041631;28;20441;-85
2021/01/21 08:35:17;;;;;;;2.57;1.47;;;;;;;;;;5069889;28;20457;-85
2021/01/21 08:37:44;;;;;;;1.70;1.20;;;;;;;;;;5076416;28;20481;-85
2021/01/21 08:40:10;;;;;;;6.60;1.50;;;;;;;;;;5073736;28;20438;-85
2021/01/21 08:42:40;;;;;;;2.50;1.30;;;;;;;;;;5068247;28;20193;-85
2021/01/21 08:45:06;;;;;;;2.83;1.87;;;;;;;;;;5052559;28;20411;-86
2021/01/21 08:47:46;;;;;;;4.43;1.40;;;;;;;;;;5053682;28;21231;-85
2021/01/21 08:50:12;;;;;;;8.47;1.50;;;;;;;;;;5054120;28;20407;-84
2021/01/21 08:52:58;;;;;;;4.90;2.03;;;;;;;;;;5059804;28;20481;-85
2021/01/21 08:55:35;;;;;;;5.70;2.17;;;;;;;;;;5048252;28;20414;-84
2021/01/21 08:58:01;;;;;;;3.80;1.50;;;;;;;;;;5048009;28;20483;-84
2021/01/21 09:00:28;;;;;;;3.73;1.50;;;;;;;;;;5041588;28;20422;-84
2021/01/21 09:02:54;;;;;;;3.10;1.90;;;;;;;;;;5056003;28;20430;-84
2021/01/21 09:05:21;;;;;;;4.07;2.30;;;;;;;;;;5057808;28;20436;-82
2021/01/21 09:07:48;;;;;;;3.50;2.20;;;;;;;;;;5056409;28;20475;-84
2021/01/21 09:10:14;;;;;;;17.00;13.10;;;;;;;;;;5059171;28;20406;-84
2021/01/21 09:12:40;;;;;;;4.30;1.80;;;;;;;;;;5055642;28;20431;-84
2021/01/21 09:15:08;;;;;;;3.20;1.57;;;;;;;;;;5057054;28;20435;-85
2021/01/21 09:17:35;;;;;;;5.67;1.90;;;;;;;;;;5053933;28;20543;-84
2021/01/21 09:20:02;;;;;;;2.07;1.20;;;;;;;;;;5054356;28;20435;-84
2021/01/21 09:22:38;;;;;;;3.77;1.47;;;;;;;;;;5054505;28;20987;-83
2021/01/21 09:25:06;;;;;;;7.70;1.73;;;;;;;;;;5042543;28;20426;-84
2021/01/21 09:27:33;;;;;;;2.80;1.20;;;;;;;;;;5046385;28;20490;-84
2021/01/21 09:30:05;;;;;;;6.10;1.50;;;;;;;;;;5029658;28;20415;-83
2021/01/21 09:32:32;;;;;;;6.03;1.50;;;;;;;;;;5044849;28;20851;-83
2021/01/21 09:35:00;;;;;;;2.80;1.10;;;;;;;;;;5036334;28;20791;-84
2021/01/21 09:37:27;;;;;;;3.30;1.63;;;;;;;;;;5045570;28;20469;-84
2021/01/21 09:39:53;;;;;;;2.60;1.40;;;;;;;;;;5049615;28;20484;-84
2021/01/21 09:42:19;;;;;;;2.97;1.23;;;;;;;;;;5043575;28;20913;-84
2021/01/21 09:44:46;;;;;;;5.10;1.30;;;;;;;;;;5046394;28;20421;-83
2021/01/21 09:47:12;;;;;;;2.37;1.20;;;;;;;;;;5050119;28;20466;-84
2021/01/21 09:49:40;;;;;;;7.80;2.17;;;;;;;;;;5048507;28;20501;-83
2021/01/21 09:52:06;;;;;;;1.70;1.23;;;;;;;;;;5059905;28;20424;-84
2021/01/21 09:54:32;;;;;;;4.63;1.40;;;;;;;;;;5051982;28;20434;-84
2021/01/21 09:56:59;;;;;;;1.90;1.10;;;;;;;;;;5046749;28;20458;-83
2021/01/21 09:59:25;;;;;;;2.00;0.93;;;;;;;;;;5051171;28;20461;-83
2021/01/21 10:01:51;;;;;;;1.83;1.03;;;;;;;;;;5046530;28;20437;-84
2021/01/21 10:04:17;;;;;;;1.87;1.17;;;;;;;;;;5045772;28;20487;-84
2021/01/21 10:06:43;;;;;;;3.80;1.40;;;;;;;;;;5050776;28;20423;-83
2021/01/21 10:09:09;;;;;;;4.47;1.77;;;;;;;;;;5044203;28;20453;-84
2021/01/21 10:11:35;;;;;;;4.33;1.40;;;;;;;;;;5045150;28;20751;-84
2021/01/21 10:14:02;;;;;;;4.37;1.27;;;;;;;;;;5041447;28;20423;-84
2021/01/21 10:16:29;;;;;;;1.97;1.00;;;;;;;;;;5049872;28;20444;-84
2021/01/21 10:18:56;;;;;;;3.70;1.57;;;;;;;;;;5048388;28;20473;-84
2021/01/21 10:21:23;;;;;;;2.10;1.17;;;;;;;;;;5050019;28;20417;-84
2021/01/21 10:23:49;;;;;;;3.40;1.90;;;;;;;;;;5044571;28;20455;-84
2021/01/21 10:26:15;;;;;;;3.30;1.20;;;;;;;;;;5051376;28;20453;-84
2021/01/21 10:28:42;;;;;;;1.80;1.10;;;;;;;;;;5057937;28;20466;-84
2021/01/21 10:31:08;;;;;;;3.50;1.27;;;;;;;;;;5061605;28;20395;-84
2021/01/21 10:33:34;;;;;;;2.10;1.13;;;;;;;;;;5059655;28;20415;-84
2021/01/21 10:36:00;;;;;;;2.23;1.10;;;;;;;;;;5059677;28;20554;-86
2021/01/21 10:38:26;;;;;;;2.20;1.13;;;;;;;;;;5059251;28;20461;-85
2021/01/21 10:40:52;;;;;;;7.73;1.20;;;;;;;;;;5060591;28;20423;-85
2021/01/21 10:43:18;;;;;;;2.77;1.03;;;;;;;;;;5050182;28;20416;-85
2021/01/21 10:45:44;;;;;;;2.40;1.10;;;;;;;;;;5057383;28;20967;-84
2021/01/21 10:48:10;;;;;;;1.90;1.30;;;;;;;;;;5058894;28;20951;-84
2021/01/21 10:50:36;;;;;;;2.70;1.20;;;;;;;;;;5063880;28;20445;-84
2021/01/21 10:53:02;;;;;;;1.70;1.00;;;;;;;;;;5062649;28;20450;-85
2021/01/21 10:55:28;;;;;;;6.80;1.50;;;;;;;;;;5056650;28;20435;-84
2021/01/21 10:57:54;;;;;;;3.97;1.50;;;;;;;;;;5047823;28;20462;-84
2021/01/21 11:00:21;;;;;;;2.47;1.80;;;;;;;;;;5055766;28;20423;-85
2021/01/21 11:02:47;;;;;;;3.07;1.30;;;;;;;;;;5052751;28;20651;-85
2021/01/21 11:05:14;;;;;;;6.83;1.47;;;;;;;;;;5052433;28;20416;-85
2021/01/21 11:07:40;;;;;;;3.30;1.80;;;;;;;;;;5046510;28;20511;-84
2021/01/21 11:10:07;;;;;;;2.77;1.30;;;;;;;;;;5063653;28;20433;-85
2021/01/21 11:12:33;;;;;;;3.07;1.60;;;;;;;;;;5055349;28;20410;-84
2021/01/21 11:14:59;;;;;;;4.47;1.30;;;;;;;;;;5070956;28;20458;-84
2021/01/21 11:17:26;;;;;;;2.47;1.30;;;;;;;;;;5072465;28;20416;-84
2021/01/21 11:19:52;;;;;;;2.40;1.40;;;;;;;;;;5061278;28;20433;-84
2021/01/21 11:22:18;;;;;;;3.40;1.70;;;;;;;;;;5040849;28;20421;-85
2021/01/21 11:24:44;;;;;;;2.23;1.33;;;;;;;;;;5054806;28;20451;-84
2021/01/21 11:27:10;;;;;;;3.57;1.43;;;;;;;;;;5057737;28;20916;-84
2021/01/21 11:29:37;;;;;;;3.53;1.43;;;;;;;;;;5048484;28;20424;-84
2021/01/21 11:32:03;;;;;;;2.50;1.50;;;;;;;;;;5057951;28;20436;-84
2021/01/21 11:34:29;;;;;;;2.57;1.30;;;;;;;;;;5057708;28;20435;-85
2021/01/21 11:36:55;;;;;;;1.80;1.00;;;;;;;;;;5054414;28;20923;-83
2021/01/21 11:39:21;;;;;;;1.87;1.00;;;;;;;;;;5044676;28;20510;-84
2021/01/21 11:41:47;;;;;;;2.53;1.10;;;;;;;;;;5058616;28;20478;-84
2021/01/21 11:44:13;;;;;;;2.30;1.10;;;;;;;;;;5048199;28;20485;-84
2021/01/21 11:46:39;;;;;;;2.10;1.40;;;;;;;;;;5049133;28;20400;-84
2021/01/21 11:49:05;;;;;;;2.77;1.37;;;;;;;;;;5054397;28;20447;-84
2021/01/21 11:51:31;;;;;;;4.20;1.60;;;;;;;;;;5043833;28;20520;-84
2021/01/21 11:53:58;;;;;;;3.17;1.47;;;;;;;;;;5047525;28;20993;-84
2021/01/21 11:56:24;;;;;;;5.20;1.27;;;;;;;;;;5046886;28;20416;-84
2021/01/21 11:58:50;;;;;;;2.07;1.10;;;;;;;;;;5042429;28;20466;-84
2021/01/21 12:01:16;;;;;;;4.20;1.10;;;;;;;;;;5046496;28;20403;-84
2021/01/21 12:03:42;;;;;;;3.00;1.00;;;;;;;;;;5043791;28;20451;-85
2021/01/21 12:06:08;;;;;;;2.80;1.30;;;;;;;;;;5041159;28;20441;-84
2021/01/21 12:08:34;;;;;;;1.50;0.97;;;;;;;;;;5043768;28;20497;-84
2021/01/21 12:11:00;;;;;;;3.67;1.00;;;;;;;;;;5043509;28;20428;-84
2021/01/21 12:13:26;;;;;;;3.30;1.10;;;;;;;;;;5038687;28;20423;-84
2021/01/21 12:15:55;;;;;;;2.53;1.00;;;;;;;;;;5050513;28;20512;-87
2021/01/21 12:18:21;;;;;;;1.40;0.80;;;;;;;;;;5032513;28;20457;-84
2021/01/21 12:20:47;;;;;;;4.10;1.30;;;;;;;;;;5052754;28;20770;-84
2021/01/21 12:23:14;;;;;;;2.57;1.10;;;;;;;;;;5055062;28;20417;-84
2021/01/21 12:25:40;;;;;;;3.23;1.13;;;;;;;;;;5047399;28;20504;-84
2021/01/21 12:28:06;;;;;;;3.13;1.10;;;;;;;;;;5049960;28;20497;-84
2021/01/21 12:30:32;;;;;;;3.00;1.00;;;;;;;;;;5051679;28;20833;-85
2021/01/21 12:32:58;;;;;;;1.80;1.03;;;;;;;;;;5052323;28;20463;-85
2021/01/21 12:35:25;;;;;;;2.90;1.10;;;;;;;;;;5057387;28;20911;-85
2021/01/21 12:37:51;;;;;;;1.87;0.80;;;;;;;;;;5045920;28;20447;-84
2021/01/21 12:40:17;;;;;;;1.50;0.80;;;;;;;;;;5055143;28;20447;-86
2021/01/21 12:42:43;;;;;;;1.63;0.87;;;;;;;;;;5052742;28;20430;-85
2021/01/21 12:45:09;;;;;;;3.50;1.23;;;;;;;;;;5051258;28;20525;-84
2021/01/21 12:47:35;;;;;;;2.13;0.90;;;;;;;;;;5051969;28;20494;-85
2021/01/21 12:50:01;;;;;;;1.50;0.70;;;;;;;;;;5054970;28;20827;-84
2021/01/21 12:52:27;;;;;;;1.60;0.83;;;;;;;;;;5060293;28;20413;-84
2021/01/21 12:54:57;;;;;;;1.40;0.80;;;;;;;;;;5048612;28;20461;-85
2021/01/21 12:57:23;;;;;;;1.70;0.97;;;;;;;;;;5042914;28;20435;-85
2021/01/21 12:59:49;;;;;;;2.13;0.90;;;;;;;;;;5053431;28;20806;-86
2021/01/21 13:02:15;;;;;;;1.87;0.93;;;;;;;;;;5054446;28;20408;-86
2021/01/21 13:04:42;;;;;;;4.80;1.33;;;;;;;;;;5061875;28;20945;-86
2021/01/21 13:07:08;;;;;;;2.27;0.90;;;;;;;;;;5071462;28;20458;-87
2021/01/21 13:09:34;;;;;;;5.70;0.93;;;;;;;;;;5062052;28;20422;-87
2021/01/21 13:12:01;;;;;;;2.50;0.90;;;;;;;;;;5067808;28;20424;-87
2021/01/21 13:14:27;;;;;;;2.10;1.17;;;;;;;;;;5057394;28;20435;-86
2021/01/21 13:16:53;;;;;;;2.27;0.80;;;;;;;;;;5054597;28;20409;-86
2021/01/21 13:19:19;;;;;;;2.72;1.60;;;;;;;;;;5052429;28;20410;-85
2021/01/21 13:21:45;;;;;;;2.40;1.00;;;;;;;;;;5054392;28;20615;-86
2021/01/21 13:24:11;;;;;;;3.30;1.00;;;;;;;;;;5052701;28;20409;-87
2021/01/21 13:26:40;;;;;;;3.00;1.67;;;;;;;;;;5046991;28;20928;-86
2021/01/21 13:29:06;;;;;;;1.60;0.80;;;;;;;;;;5049193;28;20459;-87
2021/01/21 13:31:32;;;;;;;1.50;0.80;;;;;;;;;;5044980;28;20437;-86
2021/01/21 13:33:58;;;;;;;1.73;1.00;;;;;;;;;;5053341;28;20425;-85
2021/01/21 13:36:24;;;;;;;2.97;1.03;;;;;;;;;;5059650;28;20424;-87
2021/01/21 13:38:50;;;;;;;2.67;1.00;;;;;;;;;;5058304;28;20431;-86
2021/01/21 13:41:17;;;;;;;6.80;2.80;;;;;;;;;;5060291;28;20179;-87
2021/01/21 13:43:43;;;;;;;5.10;2.90;;;;;;;;;;5068471;28;20443;-87
2021/01/21 13:46:09;;;;;;;6.73;2.83;;;;;;;;;;5074663;28;20500;-87
2021/01/21 13:48:35;;;;;;;4.03;2.47;;;;;;;;;;5075042;28;20476;-86
2021/01/21 13:51:03;;;;;;;4.90;3.50;;;;;;;;;;5069338;28;20425;-83
2021/01/21 13:53:29;;;;;;;2.97;1.87;;;;;;;;;;5057376;28;20484;-85
2021/01/21 13:55:55;;;;;;;6.90;2.30;;;;;;;;;;5051351;28;20835;-84
2021/01/21 13:58:21;;;;;;;4.63;2.10;;;;;;;;;;5048468;28;20429;-85
2021/01/21 14:00:47;;;;;;;2.93;1.63;;;;;;;;;;5058928;28;20450;-84
2021/01/21 14:03:13;;;;;;;4.50;2.00;;;;;;;;;;5058200;28;20399;-85
2021/01/21 14:05:39;;;;;;;4.77;2.20;;;;;;;;;;5050223;28;20893;-84
2021/01/21 14:08:05;;;;;;;6.43;1.70;;;;;;;;;;5063188;28;20954;-84
2021/01/21 14:10:31;;;;;;;2.60;1.70;;;;;;;;;;5060329;28;20458;-86
2021/01/21 14:12:57;;;;;;;2.90;1.80;;;;;;;;;;5054080;28;20418;-85
2021/01/21 14:15:23;;;;;;;3.40;1.87;;;;;;;;;;5060533;28;20487;-85
2021/01/21 14:17:49;;;;;;;5.60;1.90;;;;;;;;;;5050847;28;20448;-86
2021/01/21 14:20:16;;;;;;;3.90;2.10;;;;;;;;;;5048948;28;20444;-84
2021/01/21 14:22:42;;;;;;;2.47;1.70;;;;;;;;;;5060603;28;20801;-84
2021/01/21 14:25:08;;;;;;;4.17;2.10;;;;;;;;;;5049073;28;20434;-85
2021/01/21 14:27:34;;;;;;;2.00;1.30;;;;;;;;;;5045308;28;20506;-86
2021/01/21 14:30:01;;;;;;;4.40;1.90;;;;;;;;;;5057647;28;20425;-85
2021/01/21 14:32:27;;;;;;;4.70;2.30;;;;;;;;;;5050703;28;20462;-85
2021/01/21 14:34:53;;;;;;;2.43;1.63;;;;;;;;;;5046742;28;20450;-85
2021/01/21 14:37:20;;;;;;;2.97;1.80;;;;;;;;;;5057641;28;20576;-86
2021/01/21 14:39:47;;;;;;;6.43;2.10;;;;;;;;;;5053569;28;20431;-85
2021/01/21 14:42:13;;;;;;;4.20;2.00;;;;;;;;;;5047896;28;20457;-85
2021/01/21 14:44:40;;;;;;;9.80;2.40;;;;;;;;;;5054264;28;20437;-85